Time;durP1;ratioP1;P1;durP2;ratioP2;P2;SDS_P1;SDS_P2;PMS_P1;PMS_P2;Temp;Humidity;BMP_temperature;BMP_pressure;BME280_temperature;BME280_humidity;BME280_pressure;Samples;Min_cycle;Max_cycle;Signal;HPM_P1;HPM_P2
2022/03/10 00:01:30;;;;;;;24.97;23.87;;;19.70;42.10;;;;;;5033221;28;20504;-41
2022/03/10 00:03:57;;;;;;;26.07;24.67;;;19.60;42.10;;;;;;5031981;28;20456;-42
2022/03/10 00:06:23;;;;;;;23.57;22.50;;;19.60;42.00;;;;;;5050714;28;20455;-41
2022/03/10 00:08:50;;;;;;;24.83;23.73;;;19.60;42.00;;;;;;5051680;28;20806;-41
2022/03/10 00:11:17;;;;;;;25.40;24.20;;;19.50;42.00;;;;;;5051879;28;20453;-44
2022/03/10 00:13:44;;;;;;;25.10;23.80;;;19.50;42.00;;;;;;5051875;28;20448;-41
2022/03/10 00:16:12;;;;;;;27.80;26.60;;;19.50;42.00;;;;;;5034588;28;20445;-41
2022/03/10 00:18:38;;;;;;;24.87;23.73;;;19.50;42.00;;;;;;5046947;28;20491;-40
2022/03/10 00:21:05;;;;;;;24.33;23.23;;;19.50;42.00;;;;;;5051537;28;20452;-41
2022/03/10 00:23:32;;;;;;;24.27;23.07;;;19.40;42.00;;;;;;5051652;28;20452;-41
2022/03/10 00:25:59;;;;;;;23.83;22.60;;;19.40;42.00;;;;;;5036327;28;20977;-40
2022/03/10 00:28:25;;;;;;;24.57;23.47;;;19.40;42.00;;;;;;5041273;28;20472;-41
2022/03/10 00:30:52;;;;;;;24.70;23.60;;;19.30;42.00;;;;;;5051619;28;20448;-41
2022/03/10 00:33:20;;;;;;;24.80;23.70;;;19.30;42.00;;;;;;5051636;28;20452;-41
2022/03/10 00:35:48;;;;;;;25.17;24.07;;;19.30;42.60;;;;;;5031657;28;20824;-41
2022/03/10 00:38:14;;;;;;;24.87;23.80;;;19.30;42.00;;;;;;5031427;28;20493;-41
2022/03/10 00:40:41;;;;;;;25.77;24.30;;;19.20;42.00;;;;;;5031700;28;20445;-40
2022/03/10 00:43:11;;;;;;;24.83;23.63;;;19.20;42.00;;;;;;5031482;28;20455;-41
2022/03/10 00:45:37;;;;;;;25.70;24.40;;;19.20;42.10;;;;;;5031864;28;20445;-41
2022/03/10 00:48:05;;;;;;;24.53;23.53;;;19.10;42.00;;;;;;5031349;28;20469;-41
2022/03/10 00:50:33;;;;;;;25.33;24.23;;;19.10;42.00;;;;;;5031424;28;20460;-41
2022/03/10 00:53:00;;;;;;;25.20;24.20;;;19.10;42.00;;;;;;5031412;28;20462;-41
2022/03/10 00:55:27;;;;;;;23.60;22.70;;;19.10;42.10;;;;;;5047276;28;20453;-41
2022/03/10 00:57:54;;;;;;;24.17;23.00;;;19.00;42.00;;;;;;5050881;28;20453;-41
2022/03/10 01:00:21;;;;;;;24.10;23.00;;;19.00;42.10;;;;;;5051314;28;20930;-42
2022/03/10 01:02:48;;;;;;;25.37;24.27;;;19.00;42.10;;;;;;5051476;28;20861;-44
2022/03/10 01:05:15;;;;;;;24.40;23.40;;;19.00;42.20;;;;;;5036597;28;20453;-41
2022/03/10 01:07:43;;;;;;;23.47;22.33;;;18.90;42.10;;;;;;5031168;28;20448;-41
2022/03/10 01:10:10;;;;;;;24.40;23.30;;;18.90;42.10;;;;;;5031184;28;20448;-41
2022/03/10 01:12:40;;;;;;;24.90;23.80;;;18.90;42.20;;;;;;5031266;28;20471;-41
2022/03/10 01:15:09;;;;;;;24.60;23.50;;;18.90;42.20;;;;;;5043845;28;20487;-41
2022/03/10 01:17:36;;;;;;;24.60;23.60;;;18.80;42.20;;;;;;5051147;28;20495;-40
2022/03/10 01:20:03;;;;;;;24.07;23.00;;;18.80;42.20;;;;;;5050748;28;20670;-41
2022/03/10 01:22:30;;;;;;;25.10;24.00;;;18.80;42.30;;;;;;5051090;28;20447;-41
2022/03/10 01:24:58;;;;;;;25.33;24.23;;;18.70;42.20;;;;;;5039632;28;20449;-41
2022/03/10 01:27:25;;;;;;;24.30;23.30;;;18.70;42.30;;;;;;5034926;28;20445;-43
2022/03/10 01:29:52;;;;;;;24.00;23.00;;;18.70;42.30;;;;;;5052080;28;20467;-42
2022/03/10 01:32:18;;;;;;;25.30;24.27;;;18.60;42.30;;;;;;5054653;28;20452;-46
2022/03/10 01:34:45;;;;;;;24.07;23.03;;;18.60;42.30;;;;;;5044889;28;20787;-43
2022/03/10 01:37:12;;;;;;;24.90;23.70;;;18.60;42.30;;;;;;5034998;28;20453;-40
2022/03/10 01:39:38;;;;;;;25.03;23.93;;;18.50;42.30;;;;;;5034295;28;20943;-40
2022/03/10 01:42:07;;;;;;;24.20;23.30;;;18.50;42.40;;;;;;5034579;28;20441;-41
2022/03/10 01:44:34;;;;;;;24.30;23.23;;;18.50;42.40;;;;;;5041993;28;20542;-41
2022/03/10 01:47:02;;;;;;;24.80;23.70;;;18.50;42.50;;;;;;5054411;28;20457;-40
2022/03/10 01:49:29;;;;;;;24.20;23.10;;;18.40;42.50;;;;;;5054071;28;20468;-41
2022/03/10 01:51:55;;;;;;;24.37;23.37;;;18.40;42.50;;;;;;5054306;28;20448;-41
2022/03/10 01:54:22;;;;;;;25.00;23.90;;;18.30;42.50;;;;;;5048136;28;20441;-41
2022/03/10 01:56:50;;;;;;;24.30;23.20;;;18.30;42.70;;;;;;5034371;28;20807;-41
2022/03/10 01:59:19;;;;;;;23.63;22.63;;;18.30;42.70;;;;;;5033855;28;20492;-41
2022/03/10 02:01:46;;;;;;;24.20;23.30;;;18.20;42.70;;;;;;5034407;28;20472;-44
2022/03/10 02:04:13;;;;;;;24.17;23.17;;;18.20;42.80;;;;;;5038303;28;20934;-40
2022/03/10 02:06:40;;;;;;;23.87;22.87;;;18.10;42.70;;;;;;5054068;28;20821;-41
2022/03/10 02:11:52;;;;;;;22.83;21.93;;;18.10;42.80;;;;;;5054090;28;20420;-41
2022/03/10 02:17:22;;;;;;;23.23;22.23;;;18.00;42.80;;;;;;5053974;28;20502;-45
2022/03/10 02:19:51;;;;;;;25.53;24.33;;;18.00;42.80;;;;;;5053499;28;20852;-40
2022/03/10 02:22:21;;;;;;;24.80;23.83;;;18.00;43.00;;;;;;5053701;28;20825;-41
2022/03/10 02:24:48;;;;;;;23.20;22.20;;;17.90;42.90;;;;;;5044888;28;20939;-41
2022/03/10 02:27:18;;;;;;;23.10;22.20;;;17.90;42.90;;;;;;5045384;28;20441;-42
2022/03/10 02:29:45;;;;;;;23.60;22.60;;;17.90;43.00;;;;;;5035597;28;20901;-42
2022/03/10 02:32:13;;;;;;;23.77;22.77;;;17.80;43.00;;;;;;5033572;28;20445;-40
2022/03/10 02:34:40;;;;;;;24.60;23.50;;;17.80;43.10;;;;;;5040611;28;20449;-41
2022/03/10 02:37:08;;;;;;;25.27;24.27;;;17.80;43.10;;;;;;5053404;28;20455;-42
2022/03/10 02:39:36;;;;;;;23.00;22.00;;;17.80;43.20;;;;;;5053054;28;20986;-40
2022/03/10 02:42:04;;;;;;;23.90;22.90;;;17.70;43.10;;;;;;5052403;28;20781;-41
2022/03/10 02:44:31;;;;;;;24.07;23.07;;;17.70;43.20;;;;;;5047260;28;20457;-43
2022/03/10 02:46:58;;;;;;;23.93;22.93;;;17.70;43.30;;;;;;5050684;28;20818;-40
2022/03/10 02:49:25;;;;;;;24.27;23.27;;;17.70;43.80;;;;;;5052943;28;20464;-42
2022/03/10 02:51:52;;;;;;;25.20;24.20;;;17.60;43.30;;;;;;5053195;28;20444;-40
2022/03/10 02:54:19;;;;;;;23.80;22.90;;;17.60;43.40;;;;;;5052366;28;20949;-41
2022/03/10 02:56:47;;;;;;;24.30;23.30;;;17.60;43.40;;;;;;5053072;28;21215;-41
2022/03/10 02:59:14;;;;;;;24.67;23.67;;;17.60;43.40;;;;;;5052344;28;20488;-41
2022/03/10 03:01:41;;;;;;;25.13;24.13;;;17.60;43.50;;;;;;5051160;28;20968;-41
2022/03/10 03:04:07;;;;;;;23.77;22.87;;;17.50;43.40;;;;;;5052818;28;20444;-43
2022/03/10 03:06:34;;;;;;;24.70;23.60;;;17.50;43.40;;;;;;5052895;28;20501;-44
2022/03/10 03:09:01;;;;;;;24.30;23.33;;;17.50;43.40;;;;;;5052618;28;20472;-41
2022/03/10 03:11:28;;;;;;;25.50;24.50;;;17.50;43.50;;;;;;5047983;28;20449;-44
2022/03/10 03:13:56;;;;;;;25.47;24.30;;;17.50;43.50;;;;;;5032919;28;20453;-43
2022/03/10 03:16:24;;;;;;;25.73;24.73;;;17.40;43.50;;;;;;5032798;28;20453;-43
2022/03/10 03:18:51;;;;;;;24.90;23.90;;;17.40;43.50;;;;;;5032424;28;20477;-43
2022/03/10 03:21:18;;;;;;;24.50;23.50;;;17.40;43.50;;;;;;5035527;28;20478;-40
2022/03/10 03:23:45;;;;;;;25.33;24.33;;;17.40;43.50;;;;;;5052760;28;20444;-42
2022/03/10 03:26:12;;;;;;;25.60;24.60;;;17.40;43.50;;;;;;5052902;28;20769;-40
2022/03/10 03:28:38;;;;;;;25.60;24.50;;;17.30;43.50;;;;;;5052519;28;20472;-42
2022/03/10 03:31:07;;;;;;;25.67;24.60;;;17.30;43.60;;;;;;5051099;28;20440;-41
2022/03/10 03:33:34;;;;;;;24.77;23.80;;;17.30;43.60;;;;;;5032658;28;20957;-41
2022/03/10 03:36:01;;;;;;;25.23;24.23;;;17.30;43.60;;;;;;5032557;28;20449;-41
2022/03/10 03:38:27;;;;;;;25.07;24.07;;;17.30;43.60;;;;;;5032220;28;20465;-41
2022/03/10 03:40:54;;;;;;;24.73;23.73;;;17.20;43.60;;;;;;5045127;28;20487;-42
2022/03/10 03:43:21;;;;;;;24.70;23.80;;;17.20;43.70;;;;;;5052280;28;20451;-41
2022/03/10 03:45:48;;;;;;;26.20;25.13;;;17.20;43.80;;;;;;5052105;28;20445;-41
2022/03/10 03:48:16;;;;;;;25.03;24.03;;;17.10;43.70;;;;;;5051920;28;20467;-42
2022/03/10 03:50:43;;;;;;;26.63;25.53;;;17.20;43.80;;;;;;5040577;28;20499;-46
2022/03/10 03:53:09;;;;;;;25.60;24.60;;;17.10;43.70;;;;;;5031905;28;20452;-41
2022/03/10 03:55:36;;;;;;;26.73;25.53;;;17.10;43.80;;;;;;5032184;28;20450;-42
2022/03/10 03:58:03;;;;;;;26.70;25.70;;;17.10;43.80;;;;;;5031778;28;21131;-46
2022/03/10 04:00:30;;;;;;;26.07;24.87;;;17.10;43.80;;;;;;5040879;28;20849;-43
2022/03/10 04:02:56;;;;;;;26.37;25.37;;;17.10;43.90;;;;;;5052180;28;20447;-41
2022/03/10 04:05:24;;;;;;;26.17;25.17;;;17.10;43.90;;;;;;5051820;28;20450;-42
2022/03/10 04:07:51;;;;;;;25.67;24.67;;;17.00;43.80;;;;;;5051563;28;20822;-43
2022/03/10 04:10:18;;;;;;;25.93;24.97;;;17.00;43.80;;;;;;5050119;28;20440;-44
2022/03/10 04:12:45;;;;;;;26.50;25.40;;;17.00;43.90;;;;;;5051788;28;20452;-43
2022/03/10 04:15:12;;;;;;;25.13;24.13;;;17.00;43.90;;;;;;5051676;28;20441;-41
2022/03/10 04:17:38;;;;;;;25.60;24.60;;;16.90;43.90;;;;;;5051684;28;20444;-41
2022/03/10 04:20:08;;;;;;;24.80;23.90;;;16.90;43.90;;;;;;5046450;28;20477;-43
2022/03/10 04:22:37;;;;;;;26.00;25.00;;;16.90;44.00;;;;;;5031713;28;20958;-41
2022/03/10 04:25:05;;;;;;;25.73;24.70;;;16.90;44.00;;;;;;5031724;28;20449;-44
2022/03/10 04:27:32;;;;;;;26.70;25.60;;;16.90;44.00;;;;;;5031662;28;20453;-43
2022/03/10 04:29:58;;;;;;;25.70;24.70;;;16.80;43.90;;;;;;5034655;28;20521;-41
2022/03/10 04:32:25;;;;;;;25.93;24.93;;;16.80;44.00;;;;;;5051529;28;20454;-41
2022/03/10 04:34:52;;;;;;;25.10;24.10;;;16.90;44.10;;;;;;5051445;28;20455;-42
2022/03/10 04:37:19;;;;;;;25.47;24.47;;;16.80;44.00;;;;;;5032664;28;20521;-41
2022/03/10 04:39:47;;;;;;;26.57;25.53;;;16.80;44.00;;;;;;5032494;28;20492;-41
2022/03/10 04:42:13;;;;;;;26.70;25.60;;;16.80;44.10;;;;;;5051329;28;20455;-41
2022/03/10 04:44:40;;;;;;;25.83;24.83;;;16.80;44.00;;;;;;5051580;28;20813;-42
2022/03/10 04:47:07;;;;;;;25.80;24.70;;;16.80;44.00;;;;;;5051287;28;20463;-41
2022/03/10 04:49:33;;;;;;;26.20;25.10;;;16.80;44.10;;;;;;5051172;28;20468;-41
2022/03/10 04:52:00;;;;;;;26.93;25.83;;;16.70;44.10;;;;;;5050473;28;20444;-42
2022/03/10 04:54:27;;;;;;;26.03;24.70;;;16.70;44.10;;;;;;5051356;28;20942;-41
2022/03/10 04:56:55;;;;;;;24.97;23.97;;;16.70;44.20;;;;;;5051333;28;20448;-41
2022/03/10 04:59:22;;;;;;;25.63;24.63;;;16.70;44.10;;;;;;5050824;28;20847;-41
2022/03/10 05:01:49;;;;;;;26.97;25.83;;;16.70;44.10;;;;;;5033241;28;20445;-41
2022/03/10 05:04:15;;;;;;;26.40;25.30;;;16.60;44.10;;;;;;5031670;28;20456;-40
2022/03/10 05:06:42;;;;;;;25.00;24.00;;;16.60;44.10;;;;;;5035374;28;20445;-41
2022/03/10 05:09:09;;;;;;;25.97;24.87;;;16.60;44.20;;;;;;5034892;28;20476;-41
2022/03/10 05:11:36;;;;;;;25.47;24.47;;;16.60;44.20;;;;;;5050815;28;20444;-43
2022/03/10 05:14:04;;;;;;;27.00;25.90;;;16.50;44.10;;;;;;5055031;28;20448;-43
2022/03/10 05:16:31;;;;;;;26.90;25.80;;;16.50;44.20;;;;;;5054923;28;20449;-42
2022/03/10 05:18:58;;;;;;;26.80;25.70;;;16.50;44.30;;;;;;5054704;28;20829;-41
2022/03/10 05:21:25;;;;;;;26.63;25.53;;;16.50;44.20;;;;;;5043502;28;21233;-41
2022/03/10 05:23:52;;;;;;;26.93;25.83;;;16.50;44.30;;;;;;5052887;28;20453;-42
2022/03/10 05:26:19;;;;;;;25.37;24.37;;;16.50;44.30;;;;;;5054716;28;20449;-41
2022/03/10 05:28:46;;;;;;;27.40;26.13;;;16.50;44.30;;;;;;5054408;28;20474;-42
2022/03/10 05:31:14;;;;;;;25.60;24.50;;;16.40;44.30;;;;;;5042333;28;20787;-41
2022/03/10 05:33:40;;;;;;;25.70;24.70;;;16.40;44.30;;;;;;5034832;28;20961;-41
2022/03/10 05:36:07;;;;;;;26.03;24.90;;;16.40;44.30;;;;;;5034676;28;20455;-44
2022/03/10 05:38:34;;;;;;;24.67;23.67;;;16.40;44.30;;;;;;5034468;28;20470;-41
2022/03/10 05:41:01;;;;;;;24.90;23.70;;;16.40;44.30;;;;;;5044660;28;20997;-41
2022/03/10 05:43:27;;;;;;;24.93;23.93;;;16.40;44.40;;;;;;5045239;28;20446;-45
2022/03/10 05:45:54;;;;;;;25.90;24.90;;;16.40;44.40;;;;;;5034306;28;20445;-42
2022/03/10 05:48:22;;;;;;;26.10;24.97;;;16.40;44.40;;;;;;5034184;28;20829;-41
2022/03/10 05:50:49;;;;;;;26.37;25.27;;;16.40;44.90;;;;;;5042664;28;20481;-41
2022/03/10 05:53:16;;;;;;;25.67;24.67;;;16.70;45.70;;;;;;5054318;28;20447;-44
2022/03/10 05:55:42;;;;;;;25.57;24.47;;;17.00;45.60;;;;;;5054239;28;20810;-41
2022/03/10 05:58:09;;;;;;;25.57;24.50;;;17.20;45.20;;;;;;5052639;28;20483;-43
2022/03/10 06:00:36;;;;;;;26.57;25.40;;;17.40;45.00;;;;;;5046112;28;21014;-43
2022/03/10 06:03:03;;;;;;;27.50;26.30;;;17.60;44.00;;;;;;5034269;28;20448;-43
2022/03/10 06:05:31;;;;;;;28.20;27.00;;;17.80;43.40;;;;;;5034049;28;20931;-43
2022/03/10 06:07:57;;;;;;;28.33;26.83;;;17.90;43.00;;;;;;5033815;28;20445;-43
2022/03/10 06:10:24;;;;;;;32.10;29.70;;;18.10;43.30;;;;;;5035212;28;20457;-45
2022/03/10 06:12:51;;;;;;;32.57;30.53;;;18.20;44.10;;;;;;5033861;28;20445;-43
2022/03/10 06:15:18;;;;;;;29.90;28.50;;;18.30;45.50;;;;;;5033969;28;20930;-45
2022/03/10 06:17:45;;;;;;;30.13;28.53;;;18.40;46.10;;;;;;5033730;28;20448;-46
2022/03/10 06:20:12;;;;;;;29.50;27.70;;;18.50;46.70;;;;;;5048495;28;20487;-43
2022/03/10 06:22:40;;;;;;;31.33;29.33;;;18.50;47.50;;;;;;5053713;28;20936;-42
2022/03/10 06:25:09;;;;;;;33.47;31.17;;;18.60;49.30;;;;;;5053296;28;20444;-44
2022/03/10 06:27:36;;;;;;;33.57;30.90;;;18.70;51.80;;;;;;5053432;28;20447;-42
2022/03/10 06:30:04;;;;;;;31.33;29.03;;;18.80;53.20;;;;;;5052996;28;20461;-43
2022/03/10 06:32:30;;;;;;;32.20;29.80;;;18.70;52.00;;;;;;5053217;28;20491;-42
2022/03/10 06:34:59;;;;;;;34.10;31.63;;;18.80;52.30;;;;;;5051520;28;20463;-44
2022/03/10 06:37:26;;;;;;;32.73;29.97;;;18.80;52.80;;;;;;5033662;28;20446;-43
2022/03/10 06:39:54;;;;;;;30.33;28.60;;;18.90;53.10;;;;;;5033289;28;20470;-43
2022/03/10 06:42:23;;;;;;;31.83;29.80;;;18.90;52.20;;;;;;5033366;28;20450;-42
2022/03/10 06:44:50;;;;;;;30.17;28.13;;;19.00;51.20;;;;;;5033557;28;20935;-42
2022/03/10 06:47:17;;;;;;;28.77;26.93;;;19.00;50.40;;;;;;5033407;28;20875;-42
2022/03/10 06:49:44;;;;;;;30.60;29.00;;;19.00;49.70;;;;;;5032912;28;20485;-42
2022/03/10 06:52:11;;;;;;;31.23;29.53;;;19.00;49.10;;;;;;5033221;28;20449;-43
2022/03/10 06:54:39;;;;;;;32.73;30.73;;;19.00;48.70;;;;;;5033234;28;20456;-42
2022/03/10 06:57:07;;;;;;;32.43;30.50;;;19.00;48.30;;;;;;5033125;28;20461;-42
2022/03/10 06:59:35;;;;;;;31.80;30.17;;;19.00;47.90;;;;;;5032755;28;20582;-42
2022/03/10 07:02:02;;;;;;;31.80;29.90;;;19.00;47.50;;;;;;5033055;28;20998;-42
2022/03/10 07:04:28;;;;;;;30.97;29.13;;;19.10;47.20;;;;;;5033068;28;20452;-42
2022/03/10 07:06:55;;;;;;;31.00;28.87;;;19.00;46.90;;;;;;5032871;28;20449;-42
2022/03/10 07:09:22;;;;;;;31.60;29.80;;;19.00;46.60;;;;;;5032813;28;20470;-44
2022/03/10 07:11:49;;;;;;;27.77;26.47;;;19.10;46.40;;;;;;5032775;28;20441;-42
2022/03/10 07:14:17;;;;;;;31.43;29.57;;;19.10;46.20;;;;;;5032870;28;20472;-42
2022/03/10 07:16:44;;;;;;;30.43;28.50;;;19.10;45.90;;;;;;5032859;28;20449;-44
2022/03/10 07:19:12;;;;;;;31.67;30.17;;;19.10;45.70;;;;;;5032456;28;20477;-42
2022/03/10 07:21:40;;;;;;;30.57;28.77;;;19.10;45.50;;;;;;5032619;28;20481;-48
2022/03/10 07:24:07;;;;;;;29.03;27.43;;;19.10;45.30;;;;;;5032709;28;20507;-43
2022/03/10 07:26:34;;;;;;;29.93;28.40;;;19.10;45.10;;;;;;5032566;28;20821;-42
2022/03/10 07:29:01;;;;;;;28.43;26.93;;;19.10;45.00;;;;;;5031861;28;20465;-42
2022/03/10 07:31:31;;;;;;;28.03;26.27;;;19.10;44.90;;;;;;5032516;28;20450;-44
2022/03/10 07:33:58;;;;;;;28.63;27.17;;;19.00;44.70;;;;;;5032473;28;20487;-42
2022/03/10 07:36:25;;;;;;;29.03;27.40;;;19.10;44.60;;;;;;5032411;28;20457;-42
2022/03/10 07:38:53;;;;;;;28.67;27.07;;;19.10;44.50;;;;;;5032306;28;20477;-42
2022/03/10 07:41:19;;;;;;;30.07;28.53;;;19.10;44.40;;;;;;5032307;28;20488;-42
2022/03/10 07:43:46;;;;;;;29.40;27.80;;;19.00;44.20;;;;;;5032180;28;20457;-42
2022/03/10 07:46:13;;;;;;;29.90;28.40;;;19.00;44.10;;;;;;5032137;28;20446;-43
2022/03/10 07:48:41;;;;;;;29.00;27.40;;;19.00;44.00;;;;;;5031812;28;20472;-41
2022/03/10 07:51:07;;;;;;;29.07;27.47;;;19.00;43.90;;;;;;5032169;28;20480;-42
2022/03/10 07:53:34;;;;;;;28.83;27.10;;;19.00;43.80;;;;;;5032105;28;20449;-42
2022/03/10 07:56:01;;;;;;;29.37;27.83;;;19.00;43.70;;;;;;5031999;28;20457;-43
2022/03/10 07:58:29;;;;;;;29.57;28.07;;;19.00;43.70;;;;;;5031758;28;20480;-42
2022/03/10 08:00:57;;;;;;;29.03;27.63;;;19.00;43.50;;;;;;5031882;28;21028;-42
2022/03/10 08:03:25;;;;;;;28.73;27.33;;;18.90;43.40;;;;;;5031965;28;20449;-42
2022/03/10 08:05:53;;;;;;;28.10;26.70;;;18.90;43.30;;;;;;5031941;28;20464;-42
2022/03/10 08:08:20;;;;;;;29.60;27.80;;;18.90;43.30;;;;;;5031816;28;20473;-42
2022/03/10 08:10:48;;;;;;;28.03;26.63;;;18.90;43.20;;;;;;5031742;28;20453;-42
2022/03/10 08:13:15;;;;;;;28.77;27.27;;;18.90;43.10;;;;;;5031939;28;20449;-42
2022/03/10 08:15:43;;;;;;;28.70;27.40;;;18.90;43.10;;;;;;5031941;28;20445;-42
2022/03/10 08:18:10;;;;;;;28.70;27.40;;;18.90;43.00;;;;;;5031551;28;20910;-43
2022/03/10 08:20:39;;;;;;;29.03;27.63;;;18.90;43.00;;;;;;5031646;28;20481;-42
2022/03/10 08:23:07;;;;;;;29.40;28.00;;;18.90;42.90;;;;;;5031655;28;20449;-42
2022/03/10 08:25:34;;;;;;;29.20;27.90;;;18.90;42.90;;;;;;5031618;28;20457;-42
2022/03/10 08:28:02;;;;;;;30.13;28.60;;;18.90;42.80;;;;;;5031487;28;20473;-42
2022/03/10 08:30:29;;;;;;;28.67;27.33;;;18.80;42.70;;;;;;5031565;28;20485;-42
2022/03/10 08:32:55;;;;;;;27.90;26.60;;;18.80;42.70;;;;;;5031551;28;20445;-42
2022/03/10 08:35:23;;;;;;;28.30;26.90;;;18.90;42.70;;;;;;5031595;28;20445;-42
2022/03/10 08:37:50;;;;;;;29.90;28.37;;;18.90;42.60;;;;;;5031351;28;20919;-42
2022/03/10 08:40:19;;;;;;;29.57;28.17;;;18.80;42.50;;;;;;5033529;28;20804;-42
2022/03/10 08:42:46;;;;;;;28.13;26.83;;;18.80;42.50;;;;;;5035791;28;20464;-42
2022/03/10 08:45:14;;;;;;;30.13;28.60;;;18.90;42.50;;;;;;5035590;28;20449;-43
2022/03/10 08:47:41;;;;;;;29.33;28.03;;;18.80;42.40;;;;;;5035389;28;20818;-42
2022/03/10 08:50:09;;;;;;;29.90;28.50;;;18.90;42.40;;;;;;5035433;28;20506;-44
2022/03/10 08:52:36;;;;;;;30.13;28.73;;;18.80;42.30;;;;;;5035509;28;20445;-42
2022/03/10 08:55:03;;;;;;;29.63;28.33;;;18.80;42.20;;;;;;5035565;28;20449;-42
2022/03/10 08:57:31;;;;;;;29.77;28.40;;;18.80;42.20;;;;;;5035504;28;20449;-42
2022/03/10 08:59:58;;;;;;;30.63;29.13;;;18.80;42.20;;;;;;5035024;28;20477;-42
2022/03/10 09:02:25;;;;;;;30.57;29.17;;;18.80;42.10;;;;;;5035280;28;20492;-42
2022/03/10 09:04:51;;;;;;;29.90;28.50;;;18.80;42.10;;;;;;5035300;28;20452;-42
2022/03/10 09:07:18;;;;;;;30.20;28.90;;;18.80;42.00;;;;;;5035346;28;20449;-42
2022/03/10 09:09:45;;;;;;;31.77;30.37;;;18.80;42.00;;;;;;5034806;28;20987;-42
2022/03/10 09:12:12;;;;;;;31.30;30.00;;;18.80;42.00;;;;;;5035164;28;20441;-42
2022/03/10 09:14:40;;;;;;;30.00;28.60;;;18.80;42.10;;;;;;5035115;28;20507;-44
2022/03/10 09:17:07;;;;;;;30.30;29.00;;;18.80;42.20;;;;;;5035124;28;20452;-42
2022/03/10 09:19:34;;;;;;;30.73;29.40;;;18.90;42.30;;;;;;5034811;28;20473;-42
2022/03/10 09:22:01;;;;;;;29.90;28.60;;;19.00;42.30;;;;;;5034870;28;20485;-41
2022/03/10 09:24:30;;;;;;;31.00;29.70;;;19.10;42.30;;;;;;5034984;28;20449;-42
2022/03/10 09:26:57;;;;;;;30.30;28.90;;;19.20;42.10;;;;;;5034932;28;20449;-42
2022/03/10 09:29:23;;;;;;;29.10;27.80;;;19.40;42.00;;;;;;5034652;28;20469;-42
2022/03/10 09:31:52;;;;;;;28.70;27.30;;;19.40;41.70;;;;;;5034816;28;20449;-42
2022/03/10 09:34:19;;;;;;;28.93;27.20;;;19.50;41.50;;;;;;5034848;28;20862;-42
2022/03/10 09:36:45;;;;;;;30.37;29.07;;;19.60;41.30;;;;;;5034737;28;20815;-42
2022/03/10 09:39:13;;;;;;;29.63;28.40;;;19.60;41.10;;;;;;5034318;28;20476;-42
2022/03/10 09:41:40;;;;;;;30.60;29.40;;;19.70;41.00;;;;;;5034675;28;20485;-42
2022/03/10 09:44:13;;;;;;;29.80;28.50;;;19.80;40.90;;;;;;5034649;28;20511;-42
2022/03/10 09:46:40;;;;;;;28.60;27.30;;;19.80;40.70;;;;;;5034663;28;20683;-41
2022/03/10 09:49:08;;;;;;;30.07;28.57;;;19.90;40.70;;;;;;5034331;28;20473;-41
2022/03/10 09:51:35;;;;;;;28.73;27.43;;;20.00;40.80;;;;;;5034144;28;20448;-42
2022/03/10 09:54:01;;;;;;;28.90;27.70;;;20.20;40.80;;;;;;5034405;28;20755;-42
2022/03/10 09:56:28;;;;;;;29.57;28.00;;;20.40;40.60;;;;;;5034287;28;20449;-42
2022/03/10 09:58:55;;;;;;;30.20;28.93;;;20.60;40.40;;;;;;5033816;28;20485;-42
2022/03/10 10:01:22;;;;;;;29.10;27.60;;;20.80;40.20;;;;;;5034306;28;20849;-42
2022/03/10 10:03:49;;;;;;;29.53;28.23;;;21.10;40.10;;;;;;5034138;28;20829;-42
2022/03/10 10:06:17;;;;;;;29.90;28.60;;;21.30;39.80;;;;;;5034236;28;20456;-42
2022/03/10 10:08:47;;;;;;;29.10;27.90;;;21.40;39.50;;;;;;5033835;28;20476;-42
2022/03/10 10:11:15;;;;;;;29.93;28.73;;;21.50;39.30;;;;;;5034220;28;20882;-42
2022/03/10 10:13:43;;;;;;;28.43;27.23;;;21.70;39.20;;;;;;5034008;28;20449;-42
2022/03/10 10:16:11;;;;;;;28.80;27.60;;;21.90;38.90;;;;;;5034015;28;20791;-41
2022/03/10 10:18:39;;;;;;;27.13;26.03;;;22.10;38.80;;;;;;5033804;28;20846;-42
2022/03/10 10:21:08;;;;;;;28.73;27.53;;;22.20;38.50;;;;;;5033797;28;20576;-42
2022/03/10 10:23:38;;;;;;;29.30;28.10;;;22.30;38.20;;;;;;5033833;28;20449;-44
2022/03/10 10:26:07;;;;;;;31.10;29.70;;;22.40;38.10;;;;;;5033887;28;20807;-42
2022/03/10 10:28:36;;;;;;;27.27;26.17;;;22.50;37.90;;;;;;5033443;28;20991;-42
2022/03/10 10:31:04;;;;;;;27.67;26.47;;;22.60;37.70;;;;;;5033771;28;20448;-44
2022/03/10 10:33:33;;;;;;;29.57;28.33;;;22.60;37.60;;;;;;5033603;28;20448;-42
2022/03/10 10:36:16;;;;;;;27.43;26.23;;;22.70;37.50;;;;;;5033618;28;20449;-42
2022/03/10 10:38:45;;;;;;;29.33;28.13;;;22.80;37.50;;;;;;5036864;28;20467;-42
2022/03/10 10:41:16;;;;;;;26.97;25.80;;;23.00;37.40;;;;;;5051859;28;20455;-42
2022/03/10 10:43:46;;;;;;;28.47;27.20;;;23.20;37.30;;;;;;5033455;28;20445;-41
2022/03/10 10:46:25;;;;;;;27.93;26.73;;;23.30;37.10;;;;;;5033458;28;20456;-42
2022/03/10 10:48:52;;;;;;;26.58;25.38;;;23.60;36.70;;;;;;5036976;28;20448;-41
2022/03/10 10:51:33;;;;;;;26.10;24.90;;;23.70;36.50;;;;;;5052074;28;20790;-41
2022/03/10 10:54:03;;;;;;;28.57;27.37;;;23.80;36.30;;;;;;5053255;28;20224;-42
2022/03/10 10:56:30;;;;;;;28.80;27.53;;;23.90;36.70;;;;;;5053176;28;20448;-42
2022/03/10 10:58:57;;;;;;;30.77;29.17;;;23.90;37.00;;;;;;5033408;28;20473;-42
2022/03/10 11:01:28;;;;;;;29.10;27.70;;;24.00;37.30;;;;;;5033063;28;20485;-41
2022/03/10 11:03:55;;;;;;;30.10;28.70;;;24.10;37.60;;;;;;5032405;28;20449;-45
2022/03/10 11:06:22;;;;;;;28.43;27.13;;;24.20;37.80;;;;;;5032921;28;20865;-43
2022/03/10 11:08:50;;;;;;;29.00;27.60;;;24.40;37.90;;;;;;5050426;28;20472;-41
2022/03/10 11:11:19;;;;;;;28.57;27.13;;;24.50;38.00;;;;;;5052779;28;20475;-42
2022/03/10 11:13:45;;;;;;;27.70;26.40;;;24.50;38.50;;;;;;5052987;28;20926;-42
2022/03/10 11:16:14;;;;;;;27.87;26.40;;;24.50;38.40;;;;;;5052712;28;20444;-41
2022/03/10 11:18:42;;;;;;;27.67;26.47;;;24.60;38.50;;;;;;5050952;28;20482;-41
2022/03/10 11:21:19;;;;;;;31.20;29.70;;;24.60;39.40;;;;;;5052547;28;20448;-44
2022/03/10 11:23:57;;;;;;;32.13;30.67;;;24.70;39.00;;;;;;5052711;28;20534;-42
2022/03/10 11:26:31;;;;;;;31.30;29.90;;;24.80;39.40;;;;;;5052496;28;20444;-41
2022/03/10 11:28:59;;;;;;;29.53;28.13;;;24.90;39.20;;;;;;5052417;28;20817;-43
2022/03/10 11:31:27;;;;;;;30.67;29.27;;;25.00;39.20;;;;;;5052588;28;20539;-42
2022/03/10 11:33:54;;;;;;;29.83;28.63;;;25.20;39.20;;;;;;5052572;28;20805;-44
2022/03/10 11:36:22;;;;;;;30.73;29.33;;;25.40;38.90;;;;;;5052293;28;20444;-44
2022/03/10 11:38:54;;;;;;;32.10;30.80;;;25.70;38.70;;;;;;5036089;28;20834;-42
2022/03/10 11:41:25;;;;;;;33.13;31.70;;;25.80;38.30;;;;;;5032422;28;21013;-42
2022/03/10 11:43:58;;;;;;;32.27;30.97;;;26.10;37.90;;;;;;5032423;28;20463;-42
2022/03/10 11:46:26;;;;;;;34.77;33.10;;;26.60;37.50;;;;;;5032371;28;20452;-42
2022/03/10 11:49:07;;;;;;;34.03;32.63;;;28.20;36.50;;;;;;5032001;28;20469;-42
2022/03/10 11:51:50;;;;;;;30.00;28.70;;;29.80;34.10;;;;;;5032217;28;20444;-42
2022/03/10 11:54:23;;;;;;;30.80;29.53;;;31.20;32.10;;;;;;5032295;28;20922;-41
2022/03/10 11:57:12;;;;;;;29.83;28.63;;;32.10;30.40;;;;;;5032227;28;20476;-42
2022/03/10 11:59:47;;;;;;;29.40;28.00;;;33.10;29.30;;;;;;5032227;28;20477;-44
2022/03/10 12:02:41;;;;;;;29.87;28.60;;;33.50;28.50;;;;;;5031949;28;20490;-47
2022/03/10 12:05:09;;;;;;;31.07;29.60;;;33.70;28.00;;;;;;5031904;28;20453;-47
2022/03/10 12:07:36;;;;;;;30.20;28.90;;;33.90;27.60;;;;;;5032036;28;20453;-44
2022/03/10 12:10:06;;;;;;;30.27;29.07;;;34.30;27.30;;;;;;5031745;28;20583;-44
2022/03/10 12:12:38;;;;;;;31.47;30.17;;;34.60;26.90;;;;;;5031921;28;20441;-46
2022/03/10 12:15:51;;;;;;;30.67;29.38;;;35.10;26.60;;;;;;5031822;28;20875;-44
2022/03/10 12:18:24;;;;;;;31.05;29.70;;;35.30;26.20;;;;;;5031526;28;20597;-45
2022/03/10 12:20:54;;;;;;;30.38;29.17;;;35.70;25.90;;;;;;5031814;28;20206;-44
2022/03/10 12:23:23;;;;;;;30.58;29.33;;;36.00;25.60;;;;;;5031738;28;20218;-46
2022/03/10 12:25:53;;;;;;;32.80;31.50;;;36.20;25.30;;;;;;5031712;28;20233;-46
2022/03/10 12:28:33;;;;;;;31.45;30.15;;;36.50;25.00;;;;;;5031368;28;20260;-46
2022/03/10 12:31:12;;;;;;;31.42;30.17;;;36.70;24.70;;;;;;5031667;28;20201;-48
2022/03/10 12:33:49;;;;;;;32.47;31.17;;;36.70;24.60;;;;;;5031645;28;20241;-46
2022/03/10 12:36:26;;;;;;;31.33;30.02;;;36.50;24.50;;;;;;5031714;28;20271;-46
2022/03/10 12:38:52;;;;;;;30.65;29.45;;;36.20;24.60;;;;;;5031474;28;20222;-47